sensor_id;sensor_type;location;lat;lon;timestamp;pressure;altitude;pressure_sealevel;temperature;humidity
75401;BME280;63974;47.538;18.972;2023-07-20T00:00:07;99673.13;;;19.96;88.53
75401;BME280;63974;47.538;18.972;2023-07-20T00:03:16;99678.13;;;19.97;88.01
75401;BME280;63974;47.538;18.972;2023-07-20T00:06:24;99692.91;;;19.98;88.11
75401;BME280;63974;47.538;18.972;2023-07-20T00:09:30;99677.41;;;20.02;87.89
75401;BME280;63974;47.538;18.972;2023-07-20T00:12:33;99677.75;;;19.89;88.01
75401;BME280;63974;47.538;18.972;2023-07-20T00:15:37;99668.75;;;19.85;88.09
75401;BME280;63974;47.538;18.972;2023-07-20T00:18:40;99660.34;;;19.88;88.40
75401;BME280;63974;47.538;18.972;2023-07-20T00:21:43;99665.53;;;19.83;88.25
75401;BME280;63974;47.538;18.972;2023-07-20T00:24:46;99656.41;;;19.69;89.50
75401;BME280;63974;47.538;18.972;2023-07-20T00:27:49;99662.34;;;19.81;88.93
75401;BME280;63974;47.538;18.972;2023-07-20T00:30:52;99655.19;;;19.76;88.12
75401;BME280;63974;47.538;18.972;2023-07-20T00:33:56;99653.53;;;19.70;88.31
75401;BME280;63974;47.538;18.972;2023-07-20T00:36:59;99653.75;;;19.69;88.00
75401;BME280;63974;47.538;18.972;2023-07-20T00:40:02;99642.19;;;19.70;88.62
75401;BME280;63974;47.538;18.972;2023-07-20T00:43:10;99640.69;;;19.74;87.96
75401;BME280;63974;47.538;18.972;2023-07-20T00:46:13;99641.03;;;19.61;88.82
75401;BME280;63974;47.538;18.972;2023-07-20T00:49:17;99639.06;;;19.35;89.38
75401;BME280;63974;47.538;18.972;2023-07-20T00:52:25;99642.88;;;19.27;89.32
75401;BME280;63974;47.538;18.972;2023-07-20T00:55:28;99635.69;;;19.39;88.76
75401;BME280;63974;47.538;18.972;2023-07-20T00:58:33;99647.56;;;19.42;89.07
75401;BME280;63974;47.538;18.972;2023-07-20T01:01:37;99639.53;;;19.32;89.26
75401;BME280;63974;47.538;18.972;2023-07-20T01:04:40;99629.97;;;19.42;90.03
75401;BME280;63974;47.538;18.972;2023-07-20T01:08:07;99624.75;;;19.47;87.92
75401;BME280;63974;47.538;18.972;2023-07-20T01:11:35;99632.25;;;19.55;88.11
75401;BME280;63974;47.538;18.972;2023-07-20T01:14:40;99633.91;;;19.45;88.95
75401;BME280;63974;47.538;18.972;2023-07-20T01:17:43;99622.34;;;19.46;88.17
75401;BME280;63974;47.538;18.972;2023-07-20T01:20:47;99621.81;;;19.44;87.96
75401;BME280;63974;47.538;18.972;2023-07-20T01:24:00;99626.59;;;19.47;87.89
75401;BME280;63974;47.538;18.972;2023-07-20T01:33:57;99647.25;;;19.55;87.77
75401;BME280;63974;47.538;18.972;2023-07-20T01:37:05;99657.59;;;19.61;88.01
75401;BME280;63974;47.538;18.972;2023-07-20T01:40:09;99657.19;;;19.69;87.57
75401;BME280;63974;47.538;18.972;2023-07-20T01:43:14;99655.75;;;19.78;86.80
75401;BME280;63974;47.538;18.972;2023-07-20T01:46:18;99647.94;;;19.67;86.89
75401;BME280;63974;47.538;18.972;2023-07-20T01:49:22;99654.81;;;19.68;87.09
75401;BME280;63974;47.538;18.972;2023-07-20T01:52:25;99645.06;;;19.68;87.30
75401;BME280;63974;47.538;18.972;2023-07-20T01:55:28;99658.94;;;19.80;87.17
75401;BME280;63974;47.538;18.972;2023-07-20T01:58:31;99655.88;;;19.88;86.57
75401;BME280;63974;47.538;18.972;2023-07-20T02:01:34;99655.41;;;19.91;86.29
75401;BME280;63974;47.538;18.972;2023-07-20T02:04:37;99660.16;;;19.73;87.60
75401;BME280;63974;47.538;18.972;2023-07-20T02:07:40;99671.97;;;19.70;87.02
75401;BME280;63974;47.538;18.972;2023-07-20T02:10:46;99669.88;;;19.72;87.32
75401;BME280;63974;47.538;18.972;2023-07-20T02:13:49;99684.09;;;19.71;87.12
75401;BME280;63974;47.538;18.972;2023-07-20T02:16:52;99703.75;;;19.64;87.75
75401;BME280;63974;47.538;18.972;2023-07-20T02:20:01;99717.09;;;19.57;88.28
75401;BME280;63974;47.538;18.972;2023-07-20T02:23:05;99723.56;;;19.50;88.79
75401;BME280;63974;47.538;18.972;2023-07-20T02:26:08;99726.97;;;19.67;86.93
75401;BME280;63974;47.538;18.972;2023-07-20T02:29:11;99720.50;;;19.74;85.63
75401;BME280;63974;47.538;18.972;2023-07-20T02:32:16;99712.81;;;19.89;83.30
75401;BME280;63974;47.538;18.972;2023-07-20T02:35:19;99706.63;;;20.00;83.34
75401;BME280;63974;47.538;18.972;2023-07-20T02:38:22;99717.50;;;20.04;81.94
75401;BME280;63974;47.538;18.972;2023-07-20T02:41:33;99722.88;;;20.09;81.22
75401;BME280;63974;47.538;18.972;2023-07-20T02:44:36;99720.53;;;20.12;80.43
75401;BME280;63974;47.538;18.972;2023-07-20T02:47:38;99705.84;;;20.16;80.59
75401;BME280;63974;47.538;18.972;2023-07-20T02:50:43;99719.06;;;20.21;81.20
75401;BME280;63974;47.538;18.972;2023-07-20T02:53:46;99708.78;;;20.20;82.34
75401;BME280;63974;47.538;18.972;2023-07-20T02:56:49;99719.47;;;20.13;83.38
75401;BME280;63974;47.538;18.972;2023-07-20T02:59:52;99708.34;;;20.06;84.99
75401;BME280;63974;47.538;18.972;2023-07-20T03:02:55;99686.13;;;20.02;85.76
75401;BME280;63974;47.538;18.972;2023-07-20T03:05:58;99694.34;;;20.06;86.36
75401;BME280;63974;47.538;18.972;2023-07-20T03:09:02;99691.63;;;20.01;87.16
75401;BME280;63974;47.538;18.972;2023-07-20T03:12:06;99696.91;;;20.01;87.98
75401;BME280;63974;47.538;18.972;2023-07-20T03:15:09;99707.13;;;19.97;89.12
75401;BME280;63974;47.538;18.972;2023-07-20T03:18:13;99698.59;;;19.90;89.48
75401;BME280;63974;47.538;18.972;2023-07-20T03:21:17;99690.94;;;19.89;89.93
75401;BME280;63974;47.538;18.972;2023-07-20T03:24:19;99684.78;;;19.83;90.33
75401;BME280;63974;47.538;18.972;2023-07-20T03:27:23;99689.91;;;19.73;91.32
75401;BME280;63974;47.538;18.972;2023-07-20T03:30:26;99691.63;;;19.63;92.10
75401;BME280;63974;47.538;18.972;2023-07-20T03:33:30;99695.13;;;19.68;92.43
75401;BME280;63974;47.538;18.972;2023-07-20T03:36:34;99709.25;;;19.62;92.95
75401;BME280;63974;47.538;18.972;2023-07-20T03:39:37;99701.50;;;19.56;93.44
75401;BME280;63974;47.538;18.972;2023-07-20T03:42:40;99710.53;;;19.60;93.59
75401;BME280;63974;47.538;18.972;2023-07-20T03:45:44;99712.13;;;19.61;94.35
75401;BME280;63974;47.538;18.972;2023-07-20T03:48:48;99719.88;;;19.67;93.67
75401;BME280;63974;47.538;18.972;2023-07-20T03:51:51;99716.91;;;19.64;94.11
75401;BME280;63974;47.538;18.972;2023-07-20T03:54:54;99723.63;;;19.71;93.72
75401;BME280;63974;47.538;18.972;2023-07-20T03:57:57;99722.56;;;19.72;94.09
75401;BME280;63974;47.538;18.972;2023-07-20T04:01:00;99715.59;;;19.83;93.84
75401;BME280;63974;47.538;18.972;2023-07-20T04:04:07;99723.41;;;19.94;93.15
75401;BME280;63974;47.538;18.972;2023-07-20T04:07:11;99709.44;;;19.94;93.41
75401;BME280;63974;47.538;18.972;2023-07-20T04:10:19;99717.66;;;19.97;93.17
75401;BME280;63974;47.538;18.972;2023-07-20T04:13:21;99715.03;;;19.97;93.19
75401;BME280;63974;47.538;18.972;2023-07-20T04:16:24;99726.78;;;20.06;92.75
75401;BME280;63974;47.538;18.972;2023-07-20T04:19:29;99731.66;;;20.14;92.84
75401;BME280;63974;47.538;18.972;2023-07-20T04:22:32;99735.06;;;20.15;92.93
75401;BME280;63974;47.538;18.972;2023-07-20T04:25:39;99738.34;;;20.22;92.18
75401;BME280;63974;47.538;18.972;2023-07-20T04:28:46;99740.53;;;20.30;91.61
75401;BME280;63974;47.538;18.972;2023-07-20T04:31:58;99752.56;;;20.42;90.91
75401;BME280;63974;47.538;18.972;2023-07-20T04:35:05;99738.00;;;20.61;89.72
75401;BME280;63974;47.538;18.972;2023-07-20T04:38:12;99732.63;;;20.72;89.50
75401;BME280;63974;47.538;18.972;2023-07-20T04:41:15;99739.38;;;20.63;89.69
75401;BME280;63974;47.538;18.972;2023-07-20T04:44:21;99730.53;;;20.74;89.62
75401;BME280;63974;47.538;18.972;2023-07-20T04:47:24;99734.53;;;20.77;89.58
75401;BME280;63974;47.538;18.972;2023-07-20T04:50:27;99737.69;;;20.79;89.36
75401;BME280;63974;47.538;18.972;2023-07-20T04:53:30;99740.56;;;20.77;89.09
75401;BME280;63974;47.538;18.972;2023-07-20T04:56:34;99743.53;;;20.81;88.51
75401;BME280;63974;47.538;18.972;2023-07-20T04:59:41;99757.44;;;20.98;87.91
75401;BME280;63974;47.538;18.972;2023-07-20T05:02:44;99766.34;;;20.87;87.93
75401;BME280;63974;47.538;18.972;2023-07-20T05:05:47;99764.72;;;20.86;87.95
75401;BME280;63974;47.538;18.972;2023-07-20T05:08:52;99769.38;;;21.00;86.93
75401;BME280;63974;47.538;18.972;2023-07-20T05:11:56;99773.19;;;20.88;87.99
75401;BME280;63974;47.538;18.972;2023-07-20T05:14:59;99766.91;;;20.94;87.64
75401;BME280;63974;47.538;18.972;2023-07-20T05:18:02;99762.38;;;20.89;88.27
75401;BME280;63974;47.538;18.972;2023-07-20T05:21:06;99764.78;;;20.91;88.27
75401;BME280;63974;47.538;18.972;2023-07-20T05:24:11;99781.16;;;20.71;89.26
75401;BME280;63974;47.538;18.972;2023-07-20T05:27:15;99770.31;;;20.89;88.78
75401;BME280;63974;47.538;18.972;2023-07-20T05:30:18;99771.50;;;21.03;87.78
75401;BME280;63974;47.538;18.972;2023-07-20T05:33:21;99763.97;;;21.12;87.47
75401;BME280;63974;47.538;18.972;2023-07-20T05:36:27;99756.19;;;21.32;86.76
75401;BME280;63974;47.538;18.972;2023-07-20T05:39:32;99756.06;;;21.43;85.65
75401;BME280;63974;47.538;18.972;2023-07-20T05:42:35;99767.09;;;21.67;85.09
75401;BME280;63974;47.538;18.972;2023-07-20T05:45:41;99758.66;;;21.70;84.26
75401;BME280;63974;47.538;18.972;2023-07-20T05:48:45;99753.44;;;21.80;83.67
75401;BME280;63974;47.538;18.972;2023-07-20T05:51:51;99757.25;;;21.62;84.44
75401;BME280;63974;47.538;18.972;2023-07-20T05:54:53;99757.88;;;21.69;84.38
75401;BME280;63974;47.538;18.972;2023-07-20T05:57:57;99761.91;;;21.77;83.90
75401;BME280;63974;47.538;18.972;2023-07-20T06:01:00;99768.56;;;21.89;83.27
75401;BME280;63974;47.538;18.972;2023-07-20T06:04:08;99769.78;;;22.13;82.43
75401;BME280;63974;47.538;18.972;2023-07-20T06:07:11;99764.00;;;22.16;82.41
75401;BME280;63974;47.538;18.972;2023-07-20T06:10:15;99785.13;;;22.11;82.13
75401;BME280;63974;47.538;18.972;2023-07-20T06:13:17;99787.75;;;22.06;82.37
75401;BME280;63974;47.538;18.972;2023-07-20T06:16:20;99792.28;;;22.16;82.28
75401;BME280;63974;47.538;18.972;2023-07-20T06:19:23;99786.53;;;22.29;81.42
75401;BME280;63974;47.538;18.972;2023-07-20T06:22:26;99779.00;;;22.42;80.79
75401;BME280;63974;47.538;18.972;2023-07-20T06:25:29;99777.66;;;22.40;81.52
75401;BME280;63974;47.538;18.972;2023-07-20T06:28:32;99779.97;;;22.36;80.78
75401;BME280;63974;47.538;18.972;2023-07-20T06:31:35;99778.75;;;22.54;80.22
75401;BME280;63974;47.538;18.972;2023-07-20T06:34:39;99774.41;;;22.94;78.38
75401;BME280;63974;47.538;18.972;2023-07-20T06:37:43;99770.78;;;23.20;77.54
75401;BME280;63974;47.538;18.972;2023-07-20T06:40:46;99787.69;;;22.99;78.57
75401;BME280;63974;47.538;18.972;2023-07-20T06:43:49;99784.59;;;23.27;77.63
75401;BME280;63974;47.538;18.972;2023-07-20T06:46:55;99782.72;;;23.27;78.05
75401;BME280;63974;47.538;18.972;2023-07-20T06:49:58;99789.84;;;23.22;77.97
75401;BME280;63974;47.538;18.972;2023-07-20T06:53:03;99794.09;;;23.13;77.62
75401;BME280;63974;47.538;18.972;2023-07-20T06:56:06;99807.13;;;23.34;77.61
75401;BME280;63974;47.538;18.972;2023-07-20T06:59:09;99790.69;;;23.62;76.57
75401;BME280;63974;47.538;18.972;2023-07-20T07:02:12;99795.47;;;23.75;75.82
75401;BME280;63974;47.538;18.972;2023-07-20T07:05:18;99799.16;;;24.19;73.90
75401;BME280;63974;47.538;18.972;2023-07-20T07:08:23;99798.09;;;24.20;69.56
75401;BME280;63974;47.538;18.972;2023-07-20T07:11:26;99808.38;;;24.57;69.58
75401;BME280;63974;47.538;18.972;2023-07-20T07:14:34;99793.91;;;24.88;67.18
75401;BME280;63974;47.538;18.972;2023-07-20T07:17:37;99795.47;;;24.94;67.78
75401;BME280;63974;47.538;18.972;2023-07-20T07:20:41;99800.56;;;24.85;68.56
75401;BME280;63974;47.538;18.972;2023-07-20T07:23:44;99811.56;;;24.54;68.34
75401;BME280;63974;47.538;18.972;2023-07-20T07:26:50;99804.13;;;24.61;69.31
75401;BME280;63974;47.538;18.972;2023-07-20T07:29:53;99800.03;;;24.83;69.87
75401;BME280;63974;47.538;18.972;2023-07-20T07:32:57;99809.22;;;25.06;69.75
75401;BME280;63974;47.538;18.972;2023-07-20T07:36:00;99802.47;;;25.28;68.28
75401;BME280;63974;47.538;18.972;2023-07-20T07:39:04;99809.69;;;25.61;66.59
75401;BME280;63974;47.538;18.972;2023-07-20T07:42:10;99817.75;;;25.51;66.58
75401;BME280;63974;47.538;18.972;2023-07-20T07:45:13;99809.56;;;25.76;64.72
75401;BME280;63974;47.538;18.972;2023-07-20T07:48:16;99807.41;;;26.11;64.09
75401;BME280;63974;47.538;18.972;2023-07-20T07:51:20;99797.47;;;26.22;61.54
75401;BME280;63974;47.538;18.972;2023-07-20T07:54:23;99817.44;;;26.19;58.09
75401;BME280;63974;47.538;18.972;2023-07-20T07:57:25;99818.09;;;26.06;56.98
75401;BME280;63974;47.538;18.972;2023-07-20T08:00:29;99808.75;;;26.09;56.92
75401;BME280;63974;47.538;18.972;2023-07-20T08:03:32;99815.69;;;26.10;55.44
75401;BME280;63974;47.538;18.972;2023-07-20T08:06:34;99814.06;;;26.09;54.31
75401;BME280;63974;47.538;18.972;2023-07-20T08:09:40;99817.19;;;25.87;51.94
75401;BME280;63974;47.538;18.972;2023-07-20T08:12:43;99818.75;;;26.22;52.31
75401;BME280;63974;47.538;18.972;2023-07-20T08:15:50;99812.19;;;26.38;49.67
75401;BME280;63974;47.538;18.972;2023-07-20T08:18:57;99820.84;;;26.48;49.31
75401;BME280;63974;47.538;18.972;2023-07-20T08:22:00;99807.47;;;26.58;48.86
75401;BME280;63974;47.538;18.972;2023-07-20T08:25:07;99806.03;;;27.08;49.57
75401;BME280;63974;47.538;18.972;2023-07-20T08:28:13;99816.06;;;26.74;49.19
75401;BME280;63974;47.538;18.972;2023-07-20T08:31:17;99816.41;;;26.67;48.63
75401;BME280;63974;47.538;18.972;2023-07-20T08:34:24;99814.53;;;26.68;48.38
75401;BME280;63974;47.538;18.972;2023-07-20T08:37:33;99826.88;;;26.82;48.00
75401;BME280;63974;47.538;18.972;2023-07-20T08:40:41;99820.00;;;27.00;47.80
75401;BME280;63974;47.538;18.972;2023-07-20T08:43:46;99829.41;;;26.92;47.35
75401;BME280;63974;47.538;18.972;2023-07-20T08:46:51;99828.50;;;27.02;46.99
75401;BME280;63974;47.538;18.972;2023-07-20T08:49:55;99837.38;;;26.74;46.54
75401;BME280;63974;47.538;18.972;2023-07-20T08:53:02;99830.91;;;26.80;47.77
75401;BME280;63974;47.538;18.972;2023-07-20T08:56:06;99827.59;;;27.30;47.50
75401;BME280;63974;47.538;18.972;2023-07-20T08:59:09;99819.72;;;27.01;48.96
75401;BME280;63974;47.538;18.972;2023-07-20T09:02:16;99832.88;;;27.16;48.10
75401;BME280;63974;47.538;18.972;2023-07-20T09:05:23;99832.47;;;27.04;48.71
75401;BME280;63974;47.538;18.972;2023-07-20T09:08:28;99828.22;;;27.03;49.33
75401;BME280;63974;47.538;18.972;2023-07-20T09:11:30;99832.16;;;27.06;49.51
75401;BME280;63974;47.538;18.972;2023-07-20T09:14:37;99829.69;;;27.33;50.09
75401;BME280;63974;47.538;18.972;2023-07-20T09:17:46;99828.16;;;27.27;50.30
75401;BME280;63974;47.538;18.972;2023-07-20T09:20:50;99820.66;;;27.47;49.20
75401;BME280;63974;47.538;18.972;2023-07-20T09:23:56;99832.41;;;27.46;48.05
75401;BME280;63974;47.538;18.972;2023-07-20T09:27:01;99828.47;;;27.44;48.62
75401;BME280;63974;47.538;18.972;2023-07-20T09:30:06;99810.69;;;26.97;48.92
75401;BME280;63974;47.538;18.972;2023-07-20T09:33:19;99821.56;;;27.01;48.18
75401;BME280;63974;47.538;18.972;2023-07-20T09:36:27;99827.31;;;27.31;49.25
75401;BME280;63974;47.538;18.972;2023-07-20T09:39:42;99819.34;;;27.82;49.03
75401;BME280;63974;47.538;18.972;2023-07-20T09:43:08;99820.94;;;27.64;48.69
75401;BME280;63974;47.538;18.972;2023-07-20T09:46:14;99825.03;;;27.93;47.51
75401;BME280;63974;47.538;18.972;2023-07-20T09:49:40;99825.63;;;28.04;45.14
75401;BME280;63974;47.538;18.972;2023-07-20T09:52:46;99823.06;;;27.99;44.54
75401;BME280;63974;47.538;18.972;2023-07-20T09:55:53;99798.22;;;27.98;45.01
75401;BME280;63974;47.538;18.972;2023-07-20T09:58:57;99801.59;;;28.36;43.39
75401;BME280;63974;47.538;18.972;2023-07-20T10:02:02;99806.28;;;28.12;46.30
75401;BME280;63974;47.538;18.972;2023-07-20T10:05:08;99815.88;;;28.26;45.36
75401;BME280;63974;47.538;18.972;2023-07-20T10:08:14;99805.34;;;28.35;44.97
75401;BME280;63974;47.538;18.972;2023-07-20T10:11:24;99802.16;;;28.46;46.06
75401;BME280;63974;47.538;18.972;2023-07-20T10:14:30;99802.06;;;28.51;45.55
75401;BME280;63974;47.538;18.972;2023-07-20T10:17:39;99798.53;;;28.42;45.30
75401;BME280;63974;47.538;18.972;2023-07-20T10:20:44;99799.69;;;28.90;45.61
75401;BME280;63974;47.538;18.972;2023-07-20T10:23:52;99798.47;;;29.10;44.98
75401;BME280;63974;47.538;18.972;2023-07-20T10:26:55;99802.06;;;28.38;44.88
75401;BME280;63974;47.538;18.972;2023-07-20T10:29:58;99801.97;;;28.56;43.70
75401;BME280;63974;47.538;18.972;2023-07-20T10:33:04;99806.25;;;29.20;43.27
75401;BME280;63974;47.538;18.972;2023-07-20T10:36:07;99812.16;;;28.81;45.72
75401;BME280;63974;47.538;18.972;2023-07-20T10:39:25;99801.00;;;29.15;44.61
75401;BME280;63974;47.538;18.972;2023-07-20T10:42:33;99798.06;;;29.16;44.27
75401;BME280;63974;47.538;18.972;2023-07-20T10:45:41;99801.97;;;29.19;45.23
75401;BME280;63974;47.538;18.972;2023-07-20T10:49:03;99789.97;;;29.30;43.16
75401;BME280;63974;47.538;18.972;2023-07-20T10:52:10;99786.63;;;29.90;42.94
75401;BME280;63974;47.538;18.972;2023-07-20T10:55:16;99793.88;;;29.68;43.13
75401;BME280;63974;47.538;18.972;2023-07-20T10:58:19;99791.22;;;29.68;43.67
75401;BME280;63974;47.538;18.972;2023-07-20T11:01:30;99778.41;;;29.43;43.73
75401;BME280;63974;47.538;18.972;2023-07-20T11:04:42;99788.81;;;29.58;42.10
75401;BME280;63974;47.538;18.972;2023-07-20T11:07:45;99777.53;;;29.69;40.90
75401;BME280;63974;47.538;18.972;2023-07-20T11:11:28;99784.66;;;29.52;39.92
75401;BME280;63974;47.538;18.972;2023-07-20T11:14:55;99786.56;;;29.51;38.74
75401;BME280;63974;47.538;18.972;2023-07-20T11:18:14;99780.47;;;29.90;38.05
75401;BME280;63974;47.538;18.972;2023-07-20T11:21:17;99778.25;;;29.83;37.83
75401;BME280;63974;47.538;18.972;2023-07-20T11:24:20;99787.97;;;30.01;36.43
75401;BME280;63974;47.538;18.972;2023-07-20T11:27:23;99781.28;;;29.90;36.54
75401;BME280;63974;47.538;18.972;2023-07-20T11:30:26;99777.97;;;29.93;36.77
75401;BME280;63974;47.538;18.972;2023-07-20T11:33:29;99770.22;;;30.14;35.45
75401;BME280;63974;47.538;18.972;2023-07-20T11:36:33;99767.28;;;29.93;34.07
75401;BME280;63974;47.538;18.972;2023-07-20T11:39:40;99769.00;;;30.20;32.92
75401;BME280;63974;47.538;18.972;2023-07-20T11:42:45;99768.50;;;30.56;33.51
75401;BME280;63974;47.538;18.972;2023-07-20T11:45:54;99768.44;;;30.39;34.90
75401;BME280;63974;47.538;18.972;2023-07-20T11:49:01;99759.53;;;29.92;35.67
75401;BME280;63974;47.538;18.972;2023-07-20T11:52:05;99772.28;;;30.17;36.00
75401;BME280;63974;47.538;18.972;2023-07-20T11:55:09;99758.50;;;30.32;35.08
75401;BME280;63974;47.538;18.972;2023-07-20T11:58:12;99771.53;;;30.25;35.39
75401;BME280;63974;47.538;18.972;2023-07-20T12:01:19;99771.16;;;30.09;35.62
75401;BME280;63974;47.538;18.972;2023-07-20T12:04:26;99765.94;;;30.43;35.20
75401;BME280;63974;47.538;18.972;2023-07-20T12:07:34;99767.22;;;30.54;34.59
75401;BME280;63974;47.538;18.972;2023-07-20T12:10:41;99765.56;;;30.75;35.87
75401;BME280;63974;47.538;18.972;2023-07-20T12:13:47;99760.50;;;30.65;35.77
75401;BME280;63974;47.538;18.972;2023-07-20T12:16:53;99756.72;;;30.83;35.82
75401;BME280;63974;47.538;18.972;2023-07-20T12:19:58;99757.22;;;30.93;35.03
75401;BME280;63974;47.538;18.972;2023-07-20T12:23:04;99759.66;;;30.56;35.14
75401;BME280;63974;47.538;18.972;2023-07-20T12:26:10;99758.22;;;30.50;36.34
75401;BME280;63974;47.538;18.972;2023-07-20T12:29:14;99766.66;;;30.27;35.75
75401;BME280;63974;47.538;18.972;2023-07-20T12:32:16;99753.84;;;30.62;34.58
75401;BME280;63974;47.538;18.972;2023-07-20T12:35:19;99745.72;;;31.10;33.88
75401;BME280;63974;47.538;18.972;2023-07-20T12:38:22;99749.19;;;30.29;35.02
75401;BME280;63974;47.538;18.972;2023-07-20T12:41:25;99753.72;;;29.90;36.00
75401;BME280;63974;47.538;18.972;2023-07-20T12:44:29;99747.75;;;29.93;35.37
75401;BME280;63974;47.538;18.972;2023-07-20T12:47:31;99738.66;;;30.49;34.92
75401;BME280;63974;47.538;18.972;2023-07-20T12:50:35;99742.31;;;30.53;34.63
75401;BME280;63974;47.538;18.972;2023-07-20T12:53:38;99737.72;;;30.37;34.81
75401;BME280;63974;47.538;18.972;2023-07-20T12:56:41;99730.25;;;30.73;35.25
75401;BME280;63974;47.538;18.972;2023-07-20T12:59:47;99736.16;;;30.53;34.80
75401;BME280;63974;47.538;18.972;2023-07-20T13:02:51;99713.81;;;30.74;34.40
75401;BME280;63974;47.538;18.972;2023-07-20T13:06:10;99719.16;;;30.57;35.09
75401;BME280;63974;47.538;18.972;2023-07-20T13:09:16;99719.72;;;29.99;34.43
75401;BME280;63974;47.538;18.972;2023-07-20T13:12:19;99725.06;;;30.21;34.46
75401;BME280;63974;47.538;18.972;2023-07-20T13:15:24;99713.19;;;30.60;33.26
75401;BME280;63974;47.538;18.972;2023-07-20T13:18:32;99708.41;;;30.49;33.36
75401;BME280;63974;47.538;18.972;2023-07-20T13:21:35;99719.44;;;30.56;32.75
75401;BME280;63974;47.538;18.972;2023-07-20T13:24:39;99711.16;;;30.91;33.38
75401;BME280;63974;47.538;18.972;2023-07-20T13:27:42;99700.56;;;31.37;31.24
75401;BME280;63974;47.538;18.972;2023-07-20T13:30:45;99698.94;;;31.70;31.27
75401;BME280;63974;47.538;18.972;2023-07-20T13:33:48;99709.31;;;31.80;31.16
75401;BME280;63974;47.538;18.972;2023-07-20T13:36:54;99691.56;;;32.54;29.94
75401;BME280;63974;47.538;18.972;2023-07-20T13:39:57;99704.03;;;32.01;30.26
75401;BME280;63974;47.538;18.972;2023-07-20T13:42:59;99705.28;;;32.03;30.78
75401;BME280;63974;47.538;18.972;2023-07-20T13:46:02;99695.59;;;32.69;30.19
75401;BME280;63974;47.538;18.972;2023-07-20T13:49:05;99710.19;;;32.01;29.26
75401;BME280;63974;47.538;18.972;2023-07-20T13:52:15;99707.50;;;32.01;29.48
75401;BME280;63974;47.538;18.972;2023-07-20T13:55:21;99706.34;;;31.65;29.50
75401;BME280;63974;47.538;18.972;2023-07-20T13:58:43;99693.00;;;31.31;30.63
75401;BME280;63974;47.538;18.972;2023-07-20T14:01:47;99695.28;;;31.75;30.37
75401;BME280;63974;47.538;18.972;2023-07-20T14:04:53;99695.81;;;31.51;30.21
75401;BME280;63974;47.538;18.972;2023-07-20T14:08:04;99694.69;;;31.98;28.10
75401;BME280;63974;47.538;18.972;2023-07-20T14:11:07;99701.22;;;31.89;29.42
75401;BME280;63974;47.538;18.972;2023-07-20T14:14:13;99696.94;;;32.54;28.90
75401;BME280;63974;47.538;18.972;2023-07-20T14:17:16;99697.00;;;33.07;27.20
75401;BME280;63974;47.538;18.972;2023-07-20T14:20:21;99698.06;;;33.14;27.79
75401;BME280;63974;47.538;18.972;2023-07-20T14:23:24;99686.06;;;33.12;26.36
75401;BME280;63974;47.538;18.972;2023-07-20T14:26:28;99681.34;;;33.29;27.18
75401;BME280;63974;47.538;18.972;2023-07-20T14:29:35;99686.09;;;32.71;27.47
75401;BME280;63974;47.538;18.972;2023-07-20T14:32:40;99693.72;;;32.40;28.04
75401;BME280;63974;47.538;18.972;2023-07-20T14:35:43;99683.69;;;33.31;27.53
75401;BME280;63974;47.538;18.972;2023-07-20T14:38:47;99684.81;;;34.34;25.34
75401;BME280;63974;47.538;18.972;2023-07-20T14:41:51;99684.25;;;33.81;25.52
75401;BME280;63974;47.538;18.972;2023-07-20T14:44:57;99674.03;;;33.86;26.51
75401;BME280;63974;47.538;18.972;2023-07-20T14:48:00;99696.50;;;33.78;25.17
75401;BME280;63974;47.538;18.972;2023-07-20T14:51:03;99700.00;;;32.24;26.96
75401;BME280;63974;47.538;18.972;2023-07-20T14:54:09;99692.97;;;32.31;26.65
75401;BME280;63974;47.538;18.972;2023-07-20T14:57:13;99683.91;;;33.82;25.53
75401;BME280;63974;47.538;18.972;2023-07-20T15:00:17;99687.59;;;33.01;26.39
75401;BME280;63974;47.538;18.972;2023-07-20T15:03:21;99706.28;;;31.19;28.76
75401;BME280;63974;47.538;18.972;2023-07-20T15:06:24;99696.91;;;30.57;29.70
75401;BME280;63974;47.538;18.972;2023-07-20T15:09:28;99694.84;;;30.37;29.19
75401;BME280;63974;47.538;18.972;2023-07-20T15:12:37;99693.25;;;29.97;30.14
75401;BME280;63974;47.538;18.972;2023-07-20T15:15:41;99694.22;;;30.01;29.55
75401;BME280;63974;47.538;18.972;2023-07-20T15:18:45;99693.69;;;30.21;29.67
75401;BME280;63974;47.538;18.972;2023-07-20T15:21:50;99690.31;;;30.54;28.22
75401;BME280;63974;47.538;18.972;2023-07-20T15:24:54;99699.69;;;30.35;28.39
75401;BME280;63974;47.538;18.972;2023-07-20T15:27:57;99700.97;;;30.29;28.87
75401;BME280;63974;47.538;18.972;2023-07-20T15:31:04;99700.66;;;30.31;30.00
75401;BME280;63974;47.538;18.972;2023-07-20T15:34:12;99695.06;;;31.08;27.91
75401;BME280;63974;47.538;18.972;2023-07-20T15:37:18;99687.91;;;30.36;29.19
75401;BME280;63974;47.538;18.972;2023-07-20T15:40:21;99702.22;;;30.32;29.68
75401;BME280;63974;47.538;18.972;2023-07-20T15:43:27;99696.75;;;30.53;29.59
75401;BME280;63974;47.538;18.972;2023-07-20T15:49:42;99689.81;;;31.54;29.01
75401;BME280;63974;47.538;18.972;2023-07-20T15:52:48;99679.28;;;31.07;29.25
75401;BME280;63974;47.538;18.972;2023-07-20T15:55:53;99692.22;;;30.71;29.36
75401;BME280;63974;47.538;18.972;2023-07-20T15:58:59;99682.66;;;31.58;27.93
75401;BME280;63974;47.538;18.972;2023-07-20T16:02:02;99689.69;;;30.83;29.57
75401;BME280;63974;47.538;18.972;2023-07-20T16:05:07;99675.91;;;31.44;29.62
75401;BME280;63974;47.538;18.972;2023-07-20T16:08:13;99684.78;;;31.36;29.79
75401;BME280;63974;47.538;18.972;2023-07-20T16:11:17;99675.50;;;31.25;29.41
75401;BME280;63974;47.538;18.972;2023-07-20T16:14:20;99685.28;;;30.87;30.70
75401;BME280;63974;47.538;18.972;2023-07-20T16:17:23;99675.63;;;31.11;30.39